Time;durP1;ratioP1;P1;durP2;ratioP2;P2;SDS_P1;SDS_P2;PMS_P1;PMS_P2;Temp;Humidity;BMP_temperature;BMP_pressure;BME280_temperature;BME280_humidity;BME280_pressure;Samples;Min_cycle;Max_cycle;Signal;HPM_P1;HPM_P2
2023/10/03 00:03:41;;;;;;;18.83;13.77;;;;;;;19.54;74.29;100108.00;10308204;28;20058;-66
2023/10/03 00:08:45;;;;;;;18.20;12.38;;;;;;;19.54;74.07;100112.56;10303204;28;20133;-66
2023/10/03 00:13:47;;;;;;;17.35;13.80;;;;;;;19.45;74.44;100102.91;10315195;28;20248;-66
2023/10/03 00:18:49;;;;;;;16.25;12.98;;;;;;;19.41;73.98;100097.88;10317578;28;20133;-64
2023/10/03 00:23:51;;;;;;;19.25;13.30;;;;;;;19.38;74.59;100084.75;10320794;28;20061;-63
2023/10/03 00:28:52;;;;;;;18.65;13.68;;;;;;;19.37;74.28;100080.34;10312788;28;20053;-66
2023/10/03 00:33:54;;;;;;;16.48;12.43;;;;;;;19.17;74.46;100061.19;10312023;28;20050;-66
2023/10/03 00:38:55;;;;;;;17.77;13.02;;;;;;;19.21;74.23;100067.03;10313241;28;20042;-65
2023/10/03 00:44:04;;;;;;;19.83;13.88;;;;;;;19.27;74.14;100074.41;10316996;28;20195;-67
2023/10/03 00:49:10;;;;;;;17.90;14.73;;;;;;;19.20;74.38;100074.31;10308340;28;20701;-65
2023/10/03 00:54:13;;;;;;;19.52;13.35;;;;;;;19.14;74.38;100074.19;10310871;28;20490;-66
2023/10/03 00:59:14;;;;;;;20.38;13.48;;;;;;;19.10;74.39;100062.94;10309214;28;20291;-65
2023/10/03 01:04:19;;;;;;;17.83;13.45;;;;;;;18.91;74.42;100037.31;10311313;28;20062;-65
2023/10/03 01:09:24;;;;;;;18.80;14.20;;;;;;;18.98;73.97;100061.72;10345565;28;20054;-65
2023/10/03 01:14:27;;;;;;;20.13;13.80;;;;;;;18.94;73.30;100063.91;10345772;28;20359;-66
2023/10/03 01:19:30;;;;;;;18.92;14.95;;;;;;;18.82;74.05;100038.38;10346995;28;20072;-63
2023/10/03 01:24:32;;;;;;;19.27;14.30;;;;;;;18.84;74.05;100050.69;10348382;28;20096;-65
2023/10/03 01:29:33;;;;;;;18.58;14.13;;;;;;;18.75;73.68;100030.22;10346524;28;20187;-66
2023/10/03 01:34:35;;;;;;;19.90;15.10;;;;;;;18.66;74.06;100012.41;10350094;28;20139;-65
2023/10/03 01:39:36;;;;;;;19.00;14.07;;;;;;;18.69;73.60;100018.28;10345764;28;20452;-66
2023/10/03 01:44:38;;;;;;;19.20;15.32;;;;;;;18.68;73.94;100027.38;10348884;28;20156;-66
2023/10/03 01:49:39;;;;;;;21.33;14.38;;;;;;;18.54;74.18;100014.72;10351887;28;20049;-66
2023/10/03 01:54:42;;;;;;;17.15;12.65;;;;;;;18.60;73.90;100022.09;10348512;28;20061;-69
2023/10/03 01:59:43;;;;;;;18.55;13.88;;;;;;;18.50;74.10;99992.66;10329350;28;20144;-67
2023/10/03 02:04:45;;;;;;;20.15;14.02;;;;;;;18.54;74.13;99993.16;10345397;28;20241;-66
2023/10/03 02:09:46;;;;;;;18.83;13.85;;;;;;;18.53;73.54;99996.88;10347488;28;20104;-65
2023/10/03 02:14:49;;;;;;;17.40;13.52;;;;;;;18.37;73.90;99965.50;10346714;28;20057;-66
2023/10/03 02:19:52;;;;;;;19.38;14.75;;;;;;;18.43;73.77;99985.50;10338268;28;20426;-65
2023/10/03 02:24:53;;;;;;;21.60;15.40;;;;;;;18.43;74.08;99974.72;10345159;28;20037;-65
2023/10/03 02:29:58;;;;;;;21.75;15.93;;;;;;;18.34;73.85;99955.91;10343140;28;20284;-64
2023/10/03 02:35:00;;;;;;;19.85;13.88;;;;;;;18.27;73.95;99952.28;10346120;28;20046;-67
2023/10/03 02:40:07;;;;;;;21.17;14.25;;;;;;;18.28;73.76;99950.41;10344744;28;20531;-66
2023/10/03 02:45:09;;;;;;;18.95;14.45;;;;;;;18.36;73.55;99963.84;10345111;28;20453;-67
2023/10/03 02:50:13;;;;;;;22.35;14.82;;;;;;;18.30;73.86;99959.16;10347474;28;20049;-66
2023/10/03 02:55:17;;;;;;;21.08;15.20;;;;;;;18.29;73.79;99955.63;10342531;28;20161;-65
2023/10/03 03:00:19;;;;;;;;;;;;;;;18.28;74.38;99962.03;10347821;28;20056;-67
2023/10/03 03:05:22;;;;;;;19.73;13.35;;;;;;;18.27;73.73;99941.50;10345965;28;20130;-66
2023/10/03 03:10:24;;;;;;;20.43;13.47;;;;;;;18.28;73.15;99934.25;10327115;28;20258;-67
2023/10/03 03:15:28;;;;;;;19.48;14.52;;;;;;;18.28;73.79;99940.47;10341538;28;20295;-66
2023/10/03 03:20:37;;;;;;;23.40;14.35;;;;;;;18.15;73.88;99910.63;10326191;28;20056;-67
2023/10/03 03:25:38;;;;;;;20.40;13.65;;;;;;;18.19;73.83;99909.25;10342794;28;20049;-66
2023/10/03 03:30:46;;;;;;;21.00;14.95;;;;;;;18.07;73.31;99910.69;10327337;28;20073;-66
2023/10/03 03:35:47;;;;;;;21.88;14.88;;;;;;;18.11;73.62;99917.41;10343886;28;20425;-66
2023/10/03 03:40:56;;;;;;;23.25;14.68;;;;;;;18.10;74.18;99907.63;10348970;28;20322;-67
2023/10/03 03:45:58;;;;;;;22.63;14.18;;;;;;;18.00;74.05;99900.66;10309189;28;20046;-65
2023/10/03 03:51:00;;;;;;;21.50;14.75;;;;;;;17.92;73.79;99892.63;10317273;28;20062;-66
2023/10/03 03:56:08;;;;;;;22.08;15.02;;;;;;;17.97;74.31;99908.22;10314129;28;20389;-66
2023/10/03 04:01:14;;;;;;;25.85;15.82;;;;;;;18.05;74.69;99901.97;10316474;28;20073;-67
2023/10/03 04:06:18;;;;;;;21.02;14.25;;;;;;;18.00;74.26;99895.28;10316488;28;20042;-65
2023/10/03 04:11:20;;;;;;;;;;;;;;;18.10;74.65;99896.88;10318029;28;20323;-63
2023/10/03 04:16:22;;;;;;;21.25;14.55;;;;;;;18.10;74.26;99894.19;10311950;28;19921;-67
2023/10/03 04:21:28;;;;;;;22.58;14.10;;;;;;;17.97;74.13;99868.69;10314102;28;20057;-63
2023/10/03 04:26:32;;;;;;;23.27;15.50;;;;;;;18.11;74.65;99895.84;10315622;28;20053;-67
2023/10/03 04:31:35;;;;;;;23.00;14.77;;;;;;;18.02;74.65;99879.75;10320306;28;20057;-64
2023/10/03 04:36:36;;;;;;;26.00;14.73;;;;;;;17.99;74.89;99877.44;10318926;28;20050;-66
2023/10/03 04:41:43;;;;;;;20.90;14.35;;;;;;;18.06;74.76;99872.16;10323821;28;20264;-67
2023/10/03 04:46:45;;;;;;;19.38;14.30;;;;;;;17.99;74.96;99855.06;10315951;28;20363;-66
2023/10/03 04:51:47;;;;;;;20.38;14.32;;;;;;;18.12;74.55;99881.34;10312169;28;20532;-67
2023/10/03 04:56:49;;;;;;;23.45;14.90;;;;;;;17.94;74.47;99852.06;10312807;28;20535;-64
2023/10/03 05:01:51;;;;;;;21.00;13.18;;;;;;;18.21;74.39;99869.50;10309930;28;20422;-65
2023/10/03 05:06:52;;;;;;;22.50;14.57;;;;;;;18.24;73.89;99882.63;10307176;28;20048;-66
2023/10/03 05:11:54;;;;;;;23.00;14.65;;;;;;;18.27;73.84;99879.56;10309659;28;20714;-67
2023/10/03 05:16:58;;;;;;;22.38;13.65;;;;;;;18.24;74.06;99861.06;10313110;28;20510;-65
2023/10/03 05:22:00;;;;;;;20.17;14.77;;;;;;;18.28;73.88;99865.03;10317770;28;20460;-66
2023/10/03 05:27:03;;;;;;;20.38;13.30;;;;;;;18.26;73.83;99860.88;10313115;28;20054;-66
2023/10/03 05:32:05;;;;;;;21.48;15.25;;;;;;;18.20;73.89;99851.66;10313242;28;20354;-65
2023/10/03 05:37:07;;;;;;;20.42;14.23;;;;;;;18.32;73.91;99866.34;10311952;28;20448;-67
2023/10/03 05:42:09;;;;;;;22.02;13.70;;;;;;;18.28;74.05;99851.56;10317726;28;20069;-67
2023/10/03 05:47:11;;;;;;;18.83;13.85;;;;;;;18.38;73.96;99880.97;10307072;28;20050;-66
2023/10/03 05:52:13;;;;;;;18.23;13.45;;;;;;;18.40;74.72;99872.69;10299806;28;20186;-66
2023/10/03 05:57:15;;;;;;;19.65;14.18;;;;;;;18.51;74.92;99885.69;10302474;28;20217;-67
2023/10/03 06:02:16;;;;;;;20.25;13.52;;;;;;;18.56;74.40;99888.69;10300743;28;20547;-68
2023/10/03 06:07:18;;;;;;;19.27;13.43;;;;;;;18.61;74.88;99888.97;10304187;28;20046;-67
2023/10/03 06:12:19;;;;;;;20.05;13.57;;;;;;;18.75;75.13;99899.94;10305511;28;20057;-67
2023/10/03 06:17:21;;;;;;;18.90;12.43;;;;;;;18.88;74.80;99903.69;10300092;28;20173;-69
2023/10/03 06:22:23;;;;;;;22.13;14.95;;;;;;;18.88;73.34;99902.84;10302171;28;20150;-67
2023/10/03 06:27:26;;;;;;;19.42;13.52;;;;;;;18.95;73.71;99919.97;10302327;28;20139;-67
2023/10/03 06:32:28;;;;;;;21.13;14.10;;;;;;;18.92;73.12;99903.34;10305003;28;20061;-66
2023/10/03 06:37:32;;;;;;;20.10;13.45;;;;;;;19.02;73.11;99899.34;10298706;28;20112;-66
2023/10/03 06:42:35;;;;;;;21.05;14.77;;;;;;;19.03;72.92;99911.78;10303898;28;20050;-67
2023/10/03 06:47:38;;;;;;;21.20;13.95;;;;;;;19.03;72.53;99890.19;10329083;28;20765;-67
2023/10/03 06:52:40;;;;;;;22.48;14.10;;;;;;;19.07;72.11;99896.06;10347694;28;20045;-68
2023/10/03 06:57:42;;;;;;;18.48;13.15;;;;;;;19.03;72.02;99900.97;10342139;28;20294;-67
2023/10/03 07:02:44;;;;;;;19.85;13.50;;;;;;;18.99;71.99;99905.09;10329272;28;20523;-66
2023/10/03 07:07:46;;;;;;;16.98;12.73;;;;;;;19.00;72.42;99920.25;10346505;28;20161;-64
2023/10/03 07:12:47;;;;;;;17.48;12.38;;;;;;;19.00;72.56;99912.16;10329036;28;20072;-65
2023/10/03 07:17:49;;;;;;;15.88;12.40;;;;;;;18.97;72.93;99906.31;10346206;28;20653;-66
2023/10/03 07:22:50;;;;;;;21.25;12.65;;;;;;;18.89;72.73;99885.66;10327956;28;20400;-66
2023/10/03 07:27:52;;;;;;;18.05;12.43;;;;;;;19.14;72.81;99934.75;10327279;28;20384;-67
2023/10/03 07:32:53;;;;;;;17.27;11.93;;;;;;;19.07;73.25;99929.25;10338345;28;20506;-68
2023/10/03 07:37:57;;;;;;;16.85;12.73;;;;;;;19.18;73.28;99929.81;10343112;28;20424;-70
2023/10/03 07:42:59;;;;;;;17.25;11.88;;;;;;;19.21;73.24;99945.63;10343377;28;20146;-71
2023/10/03 07:48:04;;;;;;;20.25;13.27;;;;;;;19.12;73.86;99926.00;10329532;28;20426;-69
2023/10/03 07:53:11;;;;;;;17.17;12.05;;;;;;;19.22;73.12;99936.53;10340250;28;20057;-67
2023/10/03 07:58:17;;;;;;;16.10;11.82;;;;;;;19.20;73.22;99922.34;10326766;28;20178;-68
2023/10/03 08:03:19;;;;;;;14.98;11.45;;;;;;;19.30;72.99;99943.66;10319649;28;20062;-66
2023/10/03 08:08:22;;;;;;;14.70;11.50;;;;;;;19.36;72.14;99932.94;10337608;28;20137;-65
2023/10/03 08:13:23;;;;;;;14.20;11.37;;;;;;;19.31;71.77;99915.66;10341246;28;20056;-69
2023/10/03 08:18:25;;;;;;;15.05;10.48;;;;;;;19.56;72.68;99945.84;10336759;28;20057;-67
2023/10/03 08:23:27;;;;;;;16.95;10.85;;;;;;;19.67;72.17;99939.97;10320293;28;20067;-67
2023/10/03 08:28:30;;;;;;;14.93;10.18;;;;;;;19.72;71.50;99964.50;10342147;28;20193;-66
2023/10/03 08:33:36;;;;;;;15.23;10.13;;;;;;;19.74;71.88;99958.91;10349782;28;20054;-67
2023/10/03 08:38:43;;;;;;;15.50;10.30;;;;;;;19.81;71.64;99961.75;10348728;28;20470;-66
2023/10/03 08:43:53;;;;;;;14.82;10.48;;;;;;;19.91;72.65;99978.47;10331082;28;20077;-66
2023/10/03 08:49:00;;;;;;;16.45;10.80;;;;;;;19.98;72.95;99983.94;10329276;28;20077;-66
2023/10/03 08:54:10;;;;;;;15.43;11.10;;;;;;;19.90;71.71;99987.59;10331114;28;20061;-67
2023/10/03 08:59:15;;;;;;;16.80;11.35;;;;;;;20.02;71.63;100007.69;10329424;28;20599;-67
2023/10/03 09:04:17;;;;;;;14.00;10.55;;;;;;;20.02;71.50;99993.34;10343348;28;20045;-68
2023/10/03 09:09:19;;;;;;;13.82;9.48;;;;;;;20.03;71.31;100003.94;10333165;28;20424;-66
2023/10/03 09:14:21;;;;;;;15.80;10.13;;;;;;;20.19;71.18;100010.13;10346052;28;20045;-67
2023/10/03 09:19:41;;;;;;;12.00;7.97;;;;;;;20.19;69.81;99992.06;10345706;28;20492;-67
2023/10/03 09:24:43;;;;;;;9.55;7.35;;;;;;;20.37;68.75;99993.47;10302425;28;20245;-66
2023/10/03 09:29:45;;;;;;;8.52;6.43;;;;;;;20.52;68.01;99993.38;10304448;28;20057;-65
2023/10/03 09:34:57;;;;;;;12.05;7.70;;;;;;;20.64;67.17;99989.97;10303256;28;20059;-65
2023/10/03 09:40:01;;;;;;;10.88;6.93;;;;;;;20.75;67.05;99975.09;10300640;28;20054;-65
2023/10/03 09:45:06;;;;;;;;;;;;;;;20.84;66.24;99995.56;10294281;28;20046;-66
2023/10/03 09:50:09;;;;;;;11.30;6.13;;;;;;;20.98;66.06;100017.28;10301898;28;20353;-66
2023/10/03 09:55:21;;;;;;;11.05;6.53;;;;;;;21.25;65.76;100014.75;10292289;28;20124;-65
2023/10/03 10:01:11;;;;;;;8.65;5.50;;;;;;;21.43;65.26;100009.66;10304779;28;20465;-68
2023/10/03 10:06:12;;;;;;;7.47;5.15;;;;;;;21.56;64.36;100024.31;10287314;28;20548;-68
2023/10/03 10:11:14;;;;;;;7.38;5.43;;;;;;;21.54;64.23;100036.19;10299581;28;20231;-67
2023/10/03 10:16:22;;;;;;;6.72;5.68;;;;;;;21.60;63.97;100006.63;10303264;28;20050;-66
2023/10/03 10:21:31;;;;;;;7.10;6.22;;;;;;;21.81;63.59;100001.09;10304688;28;20049;-68
2023/10/03 10:26:34;;;;;;;6.25;5.10;;;;;;;21.77;63.67;100013.38;10303591;28;20049;-67
2023/10/03 10:31:44;;;;;;;5.88;4.85;;;;;;;21.62;63.97;100024.34;10307191;28;20042;-67
2023/10/03 10:37:09;;;;;;;10.85;5.88;;;;;;;21.46;64.53;100041.72;10313683;28;20049;-64
2023/10/03 10:42:10;;;;;;;6.05;5.45;;;;;;;21.33;65.09;100026.28;10272161;28;20434;-69
2023/10/03 10:47:14;;;;;;;5.90;5.30;;;;;;;21.29;65.24;100008.75;10257800;28;20425;-66
2023/10/03 10:52:17;;;;;;;7.72;4.90;;;;;;;21.66;65.04;100009.38;10257571;28;20058;-67
2023/10/03 10:57:24;;;;;;;;;;;;;;;21.93;64.00;100003.19;10258236;28;20077;-67
2023/10/03 11:02:26;;;;;;;9.45;5.43;;;;;;;21.95;64.06;100001.13;10255473;28;20535;-65
2023/10/03 11:07:29;;;;;;;6.85;5.22;;;;;;;21.82;64.00;100013.59;10258082;28;20272;-66
2023/10/03 11:12:30;;;;;;;8.38;5.97;;;;;;;21.72;64.87;100007.72;10259079;28;21975;-66
2023/10/03 11:17:33;;;;;;;8.45;5.78;;;;;;;21.63;65.30;99998.09;10251621;28;20065;-67
2023/10/03 11:22:38;;;;;;;6.97;5.80;;;;;;;21.71;65.56;99998.75;10255571;28;20054;-67
2023/10/03 11:27:39;;;;;;;7.57;5.20;;;;;;;21.65;65.56;99991.44;10256689;28;20362;-68
2023/10/03 11:32:41;;;;;;;7.57;5.13;;;;;;;21.67;65.58;99986.66;10260292;28;20590;-68
2023/10/03 11:37:46;;;;;;;6.30;5.35;;;;;;;21.76;65.90;99968.34;10263450;28;20409;-68
2023/10/03 11:43:03;;;;;;;8.63;6.07;;;;;;;22.46;64.68;99953.66;10264331;28;20058;-66
2023/10/03 11:48:10;;;;;;;5.25;4.75;;;;;;;23.19;62.91;99950.88;10298315;28;20050;-69
2023/10/03 11:53:13;;;;;;;10.93;5.57;;;;;;;23.18;61.29;99942.94;10301249;28;20421;-68
2023/10/03 11:58:15;;;;;;;7.60;5.28;;;;;;;22.85;62.46;99941.97;10302227;28;20054;-68
2023/10/03 12:03:17;;;;;;;6.65;5.50;;;;;;;22.74;63.14;99934.47;10291377;28;20113;-68
2023/10/03 12:08:19;;;;;;;6.57;5.18;;;;;;;22.75;62.28;99919.84;10297164;28;20054;-67
2023/10/03 12:13:20;;;;;;;6.82;4.97;;;;;;;22.73;62.75;99911.94;10299667;28;20090;-68
2023/10/03 12:18:22;;;;;;;6.63;5.43;;;;;;;22.64;62.94;99904.22;10295311;28;20181;-67
2023/10/03 12:23:24;;;;;;;7.05;4.90;;;;;;;22.58;63.41;99906.75;10315678;28;20057;-68
2023/10/03 12:28:25;;;;;;;6.20;5.13;;;;;;;22.43;63.87;99895.28;10312497;28;20600;-68
2023/10/03 12:33:28;;;;;;;5.85;5.25;;;;;;;22.38;64.27;99909.47;10310799;28;20061;-68
2023/10/03 12:38:29;;;;;;;8.10;5.87;;;;;;;22.23;64.65;99893.41;10313439;28;20755;-66
2023/10/03 12:43:33;;;;;;;13.18;6.57;;;;;;;22.19;72.54;100007.88;10308200;28;20738;-68
2023/10/03 12:48:35;;;;;;;7.93;3.92;;;;;;;21.57;76.92;100001.63;10310944;28;20061;-66
2023/10/03 12:53:36;;;;;;;6.47;3.60;;;;;;;21.39;78.52;99981.28;10296336;28;20065;-67
2023/10/03 12:58:39;;;;;;;4.38;3.28;;;;;;;21.22;79.59;100032.22;10310202;28;20062;-68
2023/10/03 13:03:42;;;;;;;9.65;6.18;;;;;;;21.11;84.08;100028.22;10309858;28;20058;-69
2023/10/03 13:08:43;;;;;;;8.77;4.00;;;;;;;21.16;83.17;100012.19;10280252;28;21309;-69
2023/10/03 13:13:47;;;;;;;7.78;6.32;;;;;;;21.07;82.88;100015.28;10287287;28;20054;-67
2023/10/03 13:18:49;;;;;;;4.50;2.42;;;;;;;20.99;83.04;100033.31;10308989;28;20092;-68
2023/10/03 13:23:50;;;;;;;4.38;2.63;;;;;;;20.82;84.77;100024.69;10293870;28;20054;-69
2023/10/03 13:28:52;;;;;;;5.80;2.80;;;;;;;20.84;84.19;100060.47;10296240;28;20148;-68
2023/10/03 13:33:54;;;;;;;3.95;2.33;;;;;;;20.59;84.95;100061.88;10312572;28;20050;-67
2023/10/03 13:38:58;;;;;;;4.28;2.00;;;;;;;20.54;85.11;100045.41;10313130;28;20594;-67
2023/10/03 13:43:59;;;;;;;3.13;2.08;;;;;;;20.43;86.12;100071.94;10311066;28;20268;-67
2023/10/03 13:49:01;;;;;;;4.47;2.20;;;;;;;20.30;87.03;100069.91;10311061;28;20689;-67
2023/10/03 13:54:03;;;;;;;3.95;2.58;;;;;;;20.29;86.17;100056.59;10310732;28;20771;-68
2023/10/03 13:59:05;;;;;;;4.50;2.42;;;;;;;20.22;88.82;100082.72;10307914;28;20053;-67
2023/10/03 14:04:08;;;;;;;3.45;2.10;;;;;;;20.27;88.09;100080.28;10289076;28;20154;-66
2023/10/03 14:09:09;;;;;;;3.97;2.70;;;;;;;20.27;88.05;100085.69;10291230;28;20057;-66
2023/10/03 14:14:13;;;;;;;4.25;2.60;;;;;;;20.33;89.03;100084.06;10313921;28;20135;-64
2023/10/03 14:19:19;;;;;;;3.13;2.08;;;;;;;20.35;88.67;100107.19;10299311;28;20650;-66
2023/10/03 14:24:21;;;;;;;6.18;3.75;;;;;;;20.08;88.45;100079.84;10259274;28;20051;-67
2023/10/03 14:29:23;;;;;;;3.88;2.88;;;;;;;20.11;90.60;100136.22;10262606;28;20076;-66
2023/10/03 14:34:27;;;;;;;4.13;2.95;;;;;;;20.02;90.94;100147.31;10260255;28;20530;-65
2023/10/03 14:39:29;;;;;;;2.90;1.80;;;;;;;20.04;90.67;100199.31;10264115;28;20474;-65
2023/10/03 14:44:31;;;;;;;2.60;1.48;;;;;;;19.81;89.58;100210.19;10258128;28;20058;-68
2023/10/03 14:49:32;;;;;;;2.13;0.93;;;;;;;19.50;90.37;100220.09;10259914;28;20058;-67
2023/10/03 14:54:34;;;;;;;2.72;1.58;;;;;;;19.49;89.79;100233.78;10259459;28;20062;-67
2023/10/03 14:59:35;;;;;;;1.77;0.88;;;;;;;19.29;87.16;100238.81;10261659;28;20129;-68
2023/10/03 15:04:38;;;;;;;2.40;0.87;;;;;;;19.26;84.98;100285.91;10257121;28;20216;-66
2023/10/03 15:09:39;;;;;;;1.65;0.98;;;;;;;19.23;85.49;100289.81;10254736;28;20114;-69
2023/10/03 15:14:43;;;;;;;3.17;1.00;;;;;;;19.05;85.25;100283.81;10260961;28;20287;-67
2023/10/03 15:19:44;;;;;;;;;;;;;;;18.56;81.52;100301.09;10259906;28;20057;-66
2023/10/03 15:24:46;;;;;;;2.60;0.88;;;;;;;18.32;82.09;100312.78;10261393;28;20417;-69
2023/10/03 15:29:48;;;;;;;2.33;0.85;;;;;;;18.48;79.83;100322.66;10257705;28;20267;-67
2023/10/03 15:34:50;;;;;;;1.75;0.82;;;;;;;18.25;80.54;100344.94;10251856;28;20241;-66
2023/10/03 15:39:55;;;;;;;1.58;0.80;;;;;;;18.22;82.37;100339.91;10258496;28;20062;-67
2023/10/03 15:45:04;;;;;;;1.50;0.70;;;;;;;18.34;82.63;100368.16;10258892;28;20155;-67
2023/10/03 15:50:12;;;;;;;2.20;0.93;;;;;;;18.49;82.98;100394.44;10257103;28;20049;-67
2023/10/03 15:55:15;;;;;;;1.95;1.10;;;;;;;18.26;80.48;100419.38;10257782;28;20136;-67
2023/10/03 16:00:19;;;;;;;2.47;1.00;;;;;;;18.30;81.32;100415.34;10260338;28;20117;-67
2023/10/03 16:05:21;;;;;;;1.05;0.65;;;;;;;18.16;80.86;100421.41;10254901;28;20853;-68
2023/10/03 16:10:23;;;;;;;2.55;1.00;;;;;;;18.21;80.52;100440.63;10256019;28;20058;-67
2023/10/03 16:15:25;;;;;;;1.65;1.05;;;;;;;18.34;82.38;100467.03;10256065;28;20366;-66
2023/10/03 16:20:27;;;;;;;1.42;1.00;;;;;;;18.38;79.98;100484.56;10255432;28;20054;-67
2023/10/03 16:25:29;;;;;;;1.58;1.05;;;;;;;18.47;82.05;100496.19;10256160;28;20066;-67
2023/10/03 16:30:33;;;;;;;2.17;0.90;;;;;;;18.55;82.03;100528.50;10255568;28;20133;-67
2023/10/03 16:35:34;;;;;;;3.35;1.40;;;;;;;18.60;80.93;100528.88;10254536;28;20135;-68
2023/10/03 16:40:36;;;;;;;2.65;1.17;;;;;;;18.58;82.06;100528.16;10252611;28;20445;-66
2023/10/03 16:45:37;;;;;;;2.10;1.50;;;;;;;18.61;82.57;100549.41;10256763;28;20497;-67
2023/10/03 16:50:39;;;;;;;3.35;1.70;;;;;;;18.34;81.31;100567.56;10256562;28;20185;-66
2023/10/03 16:55:40;;;;;;;2.20;1.45;;;;;;;18.37;82.29;100559.19;10258891;28;20043;-67
2023/10/03 17:00:42;;;;;;;2.88;1.38;;;;;;;18.47;82.61;100572.50;10264549;28;20054;-68
2023/10/03 17:05:43;;;;;;;2.35;1.67;;;;;;;18.34;81.90;100572.13;10266001;28;20782;-66
2023/10/03 17:10:45;;;;;;;2.38;1.25;;;;;;;18.31;82.10;100580.56;10295689;28;20046;-69
2023/10/03 17:15:47;;;;;;;3.63;1.63;;;;;;;18.24;78.93;100607.34;10312031;28;21944;-67
2023/10/03 17:20:48;;;;;;;2.20;1.40;;;;;;;18.35;83.07;100642.03;10295322;28;20556;-68
2023/10/03 17:25:50;;;;;;;3.45;1.67;;;;;;;18.17;81.99;100644.84;10294590;28;20247;-69
2023/10/03 17:30:51;;;;;;;3.30;1.40;;;;;;;18.22;83.35;100674.00;10312166;28;20054;-67
2023/10/03 17:35:53;;;;;;;3.50;1.85;;;;;;;18.16;82.30;100680.03;10309935;28;20108;-65
2023/10/03 17:40:55;;;;;;;1.85;0.93;;;;;;;18.21;80.89;100710.03;10305899;28;20057;-66
2023/10/03 17:45:57;;;;;;;1.97;1.20;;;;;;;18.08;80.88;100699.72;10308171;28;20049;-67
2023/10/03 17:50:59;;;;;;;2.20;1.20;;;;;;;18.11;79.63;100714.72;10304848;28;20102;-68
2023/10/03 17:56:02;;;;;;;3.60;1.25;;;;;;;17.89;77.81;100727.72;10309266;28;20449;-67
2023/10/03 18:01:05;;;;;;;2.80;1.23;;;;;;;17.99;77.80;100752.69;10258533;28;20579;-67
2023/10/03 18:06:06;;;;;;;2.90;1.63;;;;;;;18.00;78.35;100773.25;10263720;28;20050;-68
2023/10/03 18:11:08;;;;;;;1.63;1.33;;;;;;;18.00;77.20;100792.09;10257039;28;20085;-69
2023/10/03 18:16:13;;;;;;;4.80;1.58;;;;;;;17.93;77.04;100799.09;10257581;28;20640;-69
2023/10/03 18:21:15;;;;;;;2.50;1.13;;;;;;;17.94;74.98;100822.34;10262158;28;20046;-68
2023/10/03 18:26:17;;;;;;;4.25;1.50;;;;;;;17.94;75.08;100821.50;10261236;28;20050;-67
2023/10/03 18:31:22;;;;;;;1.77;0.70;;;;;;;17.74;74.67;100823.50;10262108;28;20057;-68
2023/10/03 18:36:25;;;;;;;4.20;1.08;;;;;;;17.85;75.44;100836.75;10261685;28;20129;-68
2023/10/03 18:41:27;;;;;;;2.60;1.48;;;;;;;17.89;75.74;100846.19;10260465;28;20983;-69
2023/10/03 18:46:29;;;;;;;4.70;1.42;;;;;;;17.91;74.78;100889.13;10256808;28;20057;-68
2023/10/03 18:51:31;;;;;;;2.55;1.48;;;;;;;17.94;75.15;100908.53;10262471;28;20433;-68
2023/10/03 18:56:32;;;;;;;1.90;1.10;;;;;;;17.94;74.07;100919.31;10260080;28;20186;-68
2023/10/03 19:01:33;;;;;;;4.05;1.63;;;;;;;17.88;72.24;100921.72;10261727;28;20046;-68
2023/10/03 19:06:50;;;;;;;3.35;1.50;;;;;;;17.86;74.19;100932.66;10261140;28;20520;-68
2023/10/03 19:11:51;;;;;;;2.40;1.40;;;;;;;17.53;67.27;100955.72;10260653;28;20197;-70
2023/10/03 19:16:54;;;;;;;2.55;1.23;;;;;;;17.61;70.86;100962.06;10261874;28;20309;-68
2023/10/03 19:21:56;;;;;;;3.07;2.00;;;;;;;17.69;71.63;100979.31;10261291;28;20057;-67
2023/10/03 19:26:57;;;;;;;2.85;1.48;;;;;;;17.75;72.05;101011.00;10260906;28;20085;-68
2023/10/03 19:31:59;;;;;;;2.35;1.48;;;;;;;17.75;70.76;101030.69;10276575;28;20445;-67
2023/10/03 19:37:02;;;;;;;3.38;1.50;;;;;;;17.74;71.68;101041.59;10263207;28;20535;-69
2023/10/03 19:42:03;;;;;;;2.27;1.40;;;;;;;17.79;70.35;101077.00;10261080;28;20054;-68
2023/10/03 19:47:05;;;;;;;5.35;1.95;;;;;;;17.82;72.20;101076.72;10261361;28;20065;-66
2023/10/03 19:52:07;;;;;;;3.05;1.40;;;;;;;17.86;73.98;101088.84;10252820;28;20523;-72
2023/10/03 19:57:09;;;;;;;3.92;1.70;;;;;;;17.83;71.93;101094.53;10261128;28;20546;-68
2023/10/03 20:02:12;;;;;;;7.13;1.50;;;;;;;17.57;69.92;101102.50;10258762;28;20056;-69
2023/10/03 20:07:15;;;;;;;3.57;1.87;;;;;;;17.47;71.77;101105.19;10260078;28;20061;-67
2023/10/03 20:12:16;;;;;;;3.75;2.40;;;;;;;17.60;75.09;101138.03;10259034;28;20104;-68
2023/10/03 20:17:18;;;;;;;2.92;1.98;;;;;;;17.55;72.69;101142.16;10255252;28;20449;-66
2023/10/03 20:22:22;;;;;;;5.75;2.20;;;;;;;17.49;73.19;101157.06;10261511;28;21499;-67
2023/10/03 20:27:23;;;;;;;4.07;1.88;;;;;;;17.47;73.14;101167.97;10259930;28;20541;-67
2023/10/03 20:32:27;;;;;;;2.58;1.83;;;;;;;17.45;74.74;101174.50;10260960;28;20054;-68
2023/10/03 20:37:28;;;;;;;2.60;1.57;;;;;;;17.41;73.61;101182.00;10266570;28;20066;-67
2023/10/03 20:42:30;;;;;;;2.25;1.63;;;;;;;17.39;74.12;101178.59;10266426;28;20134;-67
2023/10/03 20:47:32;;;;;;;2.70;1.67;;;;;;;17.38;76.03;101171.53;10298241;28;20566;-68
2023/10/03 20:52:35;;;;;;;3.15;1.50;;;;;;;17.30;77.62;101156.09;10315413;28;20552;-68
2023/10/03 20:57:37;;;;;;;2.85;1.75;;;;;;;17.27;74.42;101150.19;10295524;28;20065;-68
2023/10/03 21:02:39;;;;;;;2.75;1.83;;;;;;;17.26;75.57;101141.28;10313347;28;20065;-68
2023/10/03 21:07:41;;;;;;;3.60;1.80;;;;;;;17.20;72.78;101139.13;10310958;28;20078;-66
2023/10/03 21:12:43;;;;;;;3.75;1.75;;;;;;;17.06;73.29;101126.16;10294527;28;20148;-66
2023/10/03 21:17:45;;;;;;;4.20;2.28;;;;;;;17.10;73.05;101123.03;10311015;28;20069;-66
2023/10/03 21:22:47;;;;;;;2.88;1.48;;;;;;;17.06;72.74;101115.41;10312688;28;20062;-66
2023/10/03 21:27:48;;;;;;;3.97;1.92;;;;;;;16.89;72.35;101100.84;10304987;28;20482;-66
2023/10/03 21:32:50;;;;;;;3.63;1.90;;;;;;;16.87;70.86;101125.16;10291672;28;20049;-66
2023/10/03 21:37:52;;;;;;;3.65;2.20;;;;;;;16.87;71.59;101138.63;10304309;28;20135;-64
2023/10/03 21:42:55;;;;;;;4.85;2.70;;;;;;;16.75;72.59;101137.03;10307127;28;20555;-66
2023/10/03 21:47:56;;;;;;;2.63;2.17;;;;;;;16.74;74.29;101141.59;10295010;28;20057;-64
2023/10/03 21:52:58;;;;;;;3.40;1.77;;;;;;;16.73;74.16;101144.41;10295598;28;20050;-65
2023/10/03 21:58:00;;;;;;;2.47;1.67;;;;;;;16.73;75.16;101139.03;10297744;28;20845;-65
2023/10/03 22:03:03;;;;;;;4.45;2.30;;;;;;;16.63;74.53;101132.81;10297665;28;20046;-66
2023/10/03 22:08:05;;;;;;;4.60;2.67;;;;;;;16.53;75.78;101146.22;10307603;28;20060;-65
2023/10/03 22:13:06;;;;;;;4.15;2.35;;;;;;;16.53;75.78;101127.41;10286888;28;20134;-66
2023/10/03 22:18:08;;;;;;;3.50;2.08;;;;;;;16.46;75.89;101120.94;10304801;28;20065;-65
2023/10/03 22:23:10;;;;;;;4.90;2.42;;;;;;;16.41;75.72;101114.13;10307148;28;20155;-64
2023/10/03 22:28:11;;;;;;;3.63;2.50;;;;;;;16.49;74.61;101140.31;10307937;28;20050;-64
2023/10/03 22:33:13;;;;;;;4.00;2.35;;;;;;;16.34;73.28;101155.16;10298797;28;20148;-64
2023/10/03 22:38:14;;;;;;;3.90;2.03;;;;;;;16.29;72.35;101160.94;10309265;28;20109;-64
2023/10/03 22:43:16;;;;;;;4.28;1.95;;;;;;;16.20;72.12;101170.66;10297395;28;20135;-65
2023/10/03 22:48:18;;;;;;;2.80;1.98;;;;;;;16.14;73.99;101176.59;10308269;28;20050;-66
2023/10/03 22:53:20;;;;;;;3.20;1.75;;;;;;;16.07;74.00;101149.41;10303638;28;20576;-64
2023/10/03 22:58:21;;;;;;;2.97;1.92;;;;;;;16.13;75.86;101153.41;10304514;28;20092;-65
2023/10/03 23:03:22;;;;;;;3.20;1.80;;;;;;;16.13;75.99;101153.41;10304254;28;20051;-64
2023/10/03 23:08:24;;;;;;;2.53;2.08;;;;;;;16.06;73.97;101176.41;10308937;28;20054;-65